Time;durP1;ratioP1;P1;durP2;ratioP2;P2;SDS_P1;SDS_P2;PMS_P1;PMS_P2;Temp;Humidity;BMP_temperature;BMP_pressure;BME280_temperature;BME280_humidity;BME280_pressure;Samples;Min_cycle;Max_cycle;Signal;HPM_P1;HPM_P2
2022/07/25 00:01:56;;;;;;;;;22.00;19.75;;;30.77;97738.07;;;;119007;1189;25148;-63
2022/07/25 00:04:27;;;;;;;;;23.00;18.00;;;30.79;97739.04;;;;118998;1190;25315;-65
2022/07/25 00:06:55;;;;;;;;;17.25;16.50;;;30.77;97741.66;;;;119006;1190;25700;-65
2022/07/25 00:09:22;;;;;;;;;16.50;15.25;;;30.76;97741.21;;;;118992;1189;26300;-65
2022/07/25 00:11:50;;;;;;;;;21.00;20.75;;;30.75;97743.45;;;;119040;1186;25622;-65
2022/07/25 00:14:18;;;;;;;;;22.50;20.25;;;30.76;97742.81;;;;119163;1186;25982;-65
2022/07/25 00:16:46;;;;;;;;;22.00;20.50;;;30.73;97742.55;;;;119168;1186;24818;-65
2022/07/25 00:19:14;;;;;;;;;17.75;17.50;;;30.72;97741.17;;;;119156;1186;25190;-65
2022/07/25 00:21:41;;;;;;;;;21.00;18.25;;;30.72;97743.15;;;;119166;1188;25144;-65
2022/07/25 00:24:09;;;;;;;;;24.25;20.75;;;30.72;97742.23;;;;119091;1188;26534;-65
2022/07/25 00:26:37;;;;;;;;;21.25;19.25;;;30.74;97744.36;;;;118979;1188;25368;-65
2022/07/25 00:29:07;;;;;;;;;19.75;19.00;;;30.74;97745.14;;;;118977;1189;25915;-65
2022/07/25 00:31:35;;;;;;;;;22.00;18.75;;;30.73;97746.05;;;;119026;1188;25677;-65
2022/07/25 00:34:03;;;;;;;;;21.50;18.25;;;30.72;97746.55;;;;118922;1190;26165;-65
2022/07/25 00:36:31;;;;;;;;;19.50;19.50;;;30.75;97747.02;;;;118996;1190;24963;-65
2022/07/25 00:38:59;;;;;;;;;21.75;18.50;;;30.72;97746.83;;;;119001;1190;25554;-65
2022/07/25 00:41:27;;;;;;;;;17.00;16.25;;;30.73;97751.81;;;;118998;1188;25772;-65
2022/07/25 00:43:55;;;;;;;;;17.00;15.75;;;30.73;97750.34;;;;119008;1188;24828;-65
2022/07/25 00:46:22;;;;;;;;;18.75;18.75;;;30.71;97749.10;;;;119129;1188;24929;-65
2022/07/25 00:48:51;;;;;;;;;17.25;14.50;;;30.71;97748.19;;;;119148;1187;24905;-65
2022/07/25 00:51:19;;;;;;;;;14.00;12.25;;;30.71;97751.17;;;;119130;1187;25776;-65
2022/07/25 00:53:47;;;;;;;;;17.75;17.75;;;30.71;97754.94;;;;118988;1189;25633;-65
2022/07/25 00:56:15;;;;;;;;;16.75;12.50;;;30.70;97751.78;;;;119028;1189;26108;-65
2022/07/25 00:58:44;;;;;;;;;18.25;18.00;;;30.72;97750.54;;;;119154;1188;25079;-65
2022/07/25 01:01:12;;;;;;;;;21.25;18.00;;;30.73;97752.35;;;;119008;1189;25646;-65
2022/07/25 01:03:40;;;;;;;;;23.75;20.00;;;30.73;97753.04;;;;118991;1190;25922;-65
2022/07/25 01:06:08;;;;;;;;;17.25;16.50;;;30.70;97750.42;;;;119076;1189;26173;-65
2022/07/25 01:08:37;;;;;;;;;17.50;16.25;;;30.71;97749.88;;;;119130;1187;25702;-65
2022/07/25 01:11:05;;;;;;;;;22.50;18.25;;;30.71;97746.33;;;;119010;1189;25205;-65
2022/07/25 01:13:33;;;;;;;;;18.00;18.00;;;30.71;97748.08;;;;119016;1189;25405;-65
2022/07/25 01:16:01;;;;;;;;;19.25;17.00;;;30.70;97745.20;;;;119128;1188;24874;-65
2022/07/25 01:18:29;;;;;;;;;25.00;18.75;;;30.70;97738.42;;;;119130;1187;25074;-65
2022/07/25 01:20:57;;;;;;;;;19.00;17.00;;;30.69;97732.71;;;;119060;1188;26335;-65
2022/07/25 01:23:25;;;;;;;;;18.50;16.25;;;30.70;97729.93;;;;119114;1188;26216;-65
2022/07/25 01:25:53;;;;;;;;;11.50;11.50;;;30.69;97723.91;;;;119137;1188;25593;-65
2022/07/25 01:28:21;;;;;;;;;18.50;17.00;;;30.70;97723.45;;;;119093;1188;24924;-65
2022/07/25 01:30:49;;;;;;;;;20.67;20.00;;;30.68;97725.61;;;;119107;1187;25164;-65
2022/07/25 01:33:19;;;;;;;;;20.50;17.50;;;30.68;97726.75;;;;119130;1188;25547;-65
2022/07/25 01:35:48;;;;;;;;;20.75;16.25;;;30.70;97722.42;;;;119092;1188;25609;-65
2022/07/25 01:38:16;;;;;;;;;20.50;19.75;;;30.69;97724.63;;;;118920;1190;26261;-65
2022/07/25 01:40:44;;;;;;;;;20.33;19.00;;;30.70;97725.11;;;;119011;1189;24839;-65
2022/07/25 01:43:12;;;;;;;;;18.50;17.00;;;30.68;97724.82;;;;118986;1189;25614;-65
2022/07/25 01:45:40;;;;;;;;;19.25;19.00;;;30.69;97721.02;;;;118995;1189;25916;-63
2022/07/25 01:48:08;;;;;;;;;17.00;14.50;;;30.67;97721.84;;;;119008;1189;25603;-63
2022/07/25 01:50:36;;;;;;;;;19.50;17.25;;;30.68;97724.35;;;;119001;1189;24773;-64
2022/07/25 01:53:04;;;;;;;;;17.00;17.00;;;30.66;97722.73;;;;119020;1190;26475;-64
2022/07/25 01:55:32;;;;;;;;;17.50;17.50;;;30.66;97720.02;;;;119003;1190;25614;-65
2022/07/25 01:58:00;;;;;;;;;21.75;19.00;;;30.64;97720.83;;;;118924;1190;24988;-64
2022/07/25 02:00:28;;;;;;;;;18.25;16.75;;;30.63;97719.11;;;;119007;1189;24859;-65
2022/07/25 02:05:43;;;;;;;;;20.25;13.75;;;30.61;97719.71;;;;118998;1190;25690;-65
2022/07/25 02:08:10;;;;;;;;;18.25;16.75;;;30.59;97723.46;;;;119015;1188;26077;-65
2022/07/25 02:10:38;;;;;;;;;26.00;17.50;;;30.60;97725.63;;;;119106;1187;24851;-65
2022/07/25 02:13:06;;;;;;;;;22.25;18.75;;;30.58;97724.23;;;;119122;1188;26422;-65
2022/07/25 02:15:34;;;;;;;;;17.50;14.00;;;30.59;97726.15;;;;119114;1187;25249;-65
2022/07/25 02:18:02;;;;;;;;;20.25;17.00;;;30.57;97724.07;;;;119117;1188;25417;-64
2022/07/25 02:20:30;;;;;;;;;17.00;16.25;;;30.60;97726.49;;;;119097;1187;25761;-64
2022/07/25 02:22:58;;;;;;;;;20.75;17.25;;;30.62;97724.94;;;;119110;1188;25537;-64
2022/07/25 02:25:26;;;;;;;;;16.33;16.33;;;30.61;97727.31;;;;119130;1187;25100;-63
2022/07/25 02:27:54;;;;;;;;;22.33;18.00;;;30.60;97728.20;;;;119103;1187;26393;-64
2022/07/25 02:30:21;;;;;;;;;18.25;16.50;;;30.60;97726.45;;;;118996;1189;25027;-64
2022/07/25 02:32:49;;;;;;;;;18.50;18.50;;;30.59;97728.83;;;;118988;1190;24710;-64
2022/07/25 02:35:17;;;;;;;;;14.00;14.00;;;30.58;97735.70;;;;119048;1189;26393;-64
2022/07/25 02:37:45;;;;;;;;;15.50;14.00;;;30.61;97738.96;;;;119129;1188;25490;-64
2022/07/25 02:40:13;;;;;;;;;15.00;13.50;;;30.60;97741.36;;;;119098;1189;25717;-64
2022/07/25 02:42:41;;;;;;;;;23.50;19.50;;;30.61;97741.94;;;;119110;1186;26039;-64
2022/07/25 02:45:10;;;;;;;;;16.50;14.00;;;30.60;97742.13;;;;118993;1189;25558;-64
2022/07/25 02:47:38;;;;;;;;;15.50;15.50;;;30.61;97746.17;;;;119111;1187;24796;-63
2022/07/25 02:50:06;;;;;;;;;16.75;15.75;;;30.60;97747.00;;;;119084;1188;24910;-64
2022/07/25 02:52:35;;;;;;;;;15.75;15.75;;;30.60;97745.08;;;;119009;1189;26778;-63
2022/07/25 02:55:03;;;;;;;;;18.00;16.25;;;30.60;97744.29;;;;119105;1187;24918;-63
2022/07/25 02:57:36;;;;;;;;;19.25;18.75;;;30.61;97744.37;;;;119049;1188;25717;-64
2022/07/25 03:00:06;;;;;;;;;15.50;14.25;;;30.62;97747.06;;;;119103;1188;26498;-65
2022/07/25 03:02:34;;;;;;;;;12.25;11.50;;;30.62;97745.11;;;;119237;1188;25772;-64
2022/07/25 03:05:05;;;;;;;;;13.00;11.33;;;30.62;97745.17;;;;119225;1188;25733;-64
2022/07/25 03:07:34;;;;;;;;;20.25;16.50;;;30.61;97745.17;;;;119225;1186;25405;-64
2022/07/25 03:10:04;;;;;;;;;15.75;15.25;;;30.62;97744.85;;;;119006;1187;25223;-65
2022/07/25 03:12:38;;;;;;;;;18.00;16.00;;;30.65;97745.73;;;;119087;1188;26077;-65
2022/07/25 03:15:07;;;;;;;;;17.00;14.75;;;30.64;97741.85;;;;118995;1189;25013;-65
2022/07/25 03:17:36;;;;;;;;;13.50;13.25;;;30.63;97741.64;;;;119071;1188;25473;-65
2022/07/25 03:20:05;;;;;;;;;16.50;14.75;;;30.62;97741.59;;;;119073;1189;24819;-64
2022/07/25 03:22:33;;;;;;;;;18.75;18.25;;;30.63;97743.64;;;;119040;1189;25484;-64
2022/07/25 03:25:03;;;;;;;;;14.00;12.50;;;30.65;97744.58;;;;119037;1188;26039;-64
2022/07/25 03:27:31;;;;;;;;;15.75;14.25;;;30.64;97742.48;;;;119046;1189;24903;-64
2022/07/25 03:29:59;;;;;;;;;15.67;14.00;;;30.63;97744.23;;;;118991;1188;25094;-64
2022/07/25 03:32:26;;;;;;;;;18.00;18.00;;;30.62;97743.87;;;;118926;1189;25966;-64
2022/07/25 03:34:54;;;;;;;;;19.00;17.67;;;30.61;97740.02;;;;118923;1190;25103;-65
2022/07/25 03:37:22;;;;;;;;;13.00;13.00;;;30.59;97740.59;;;;118952;1189;25504;-64
2022/07/25 03:39:51;;;;;;;;;15.50;15.50;;;30.58;97742.41;;;;118979;1190;24982;-65
2022/07/25 03:42:19;;;;;;;;;11.75;11.75;;;30.58;97742.20;;;;118992;1189;25174;-65
2022/07/25 03:44:53;;;;;;;;;19.00;14.33;;;30.61;97744.56;;;;118998;1190;25036;-65
2022/07/25 03:47:20;;;;;;;;;18.75;18.25;;;30.59;97746.53;;;;119011;1189;24690;-65
2022/07/25 03:49:48;;;;;;;;;18.00;15.50;;;30.59;97743.52;;;;119014;1189;25559;-64
2022/07/25 03:52:16;;;;;;;;;15.25;15.25;;;30.56;97738.94;;;;118982;1189;25708;-67
2022/07/25 03:54:44;;;;;;;;;17.25;13.50;;;30.60;97736.49;;;;118969;1190;25702;-67
2022/07/25 03:57:12;;;;;;;;;16.00;16.00;;;30.59;97733.35;;;;118905;1190;24957;-71
2022/07/25 03:59:40;;;;;;;;;16.25;16.25;;;30.58;97734.59;;;;118970;1190;24737;-69
2022/07/25 04:02:08;;;;;;;;;17.50;16.25;;;30.60;97737.05;;;;118983;1187;24830;-69
2022/07/25 04:04:35;;;;;;;;;18.00;15.25;;;30.58;97738.84;;;;118975;1189;25186;-69
2022/07/25 04:07:03;;;;;;;;;19.25;18.50;;;30.70;97739.80;;;;119015;1188;25288;-64
2022/07/25 04:09:31;;;;;;;;;18.67;17.67;;;30.51;97739.67;;;;119006;1189;26082;-64
2022/07/25 04:12:00;;;;;;;;;20.00;20.00;;;30.33;97736.70;;;;119041;1187;25712;-68
2022/07/25 04:14:28;;;;;;;;;21.00;18.00;;;30.21;97735.93;;;;118975;1188;25303;-65
2022/07/25 04:16:56;;;;;;;;;20.75;17.25;;;30.16;97736.14;;;;119126;1187;25223;-65
2022/07/25 04:19:24;;;;;;;;;20.00;19.00;;;30.05;97734.02;;;;119123;1188;25033;-65
2022/07/25 04:21:55;;;;;;;;;19.75;19.25;;;29.98;97732.12;;;;118983;1190;25005;-66
2022/07/25 04:24:23;;;;;;;;;20.75;20.00;;;29.92;97736.47;;;;119129;1188;25340;-65
2022/07/25 04:26:51;;;;;;;;;20.75;19.75;;;29.87;97735.21;;;;118988;1189;25731;-64
2022/07/25 04:29:19;;;;;;;;;18.50;17.25;;;29.85;97730.12;;;;119061;1187;24876;-65
2022/07/25 04:31:47;;;;;;;;;22.75;18.00;;;29.79;97731.76;;;;119010;1189;25985;-65
2022/07/25 04:34:15;;;;;;;;;22.75;20.00;;;29.73;97734.15;;;;118971;1190;25966;-66
2022/07/25 04:36:42;;;;;;;;;14.25;13.75;;;29.71;97738.55;;;;119095;1188;24949;-65
2022/07/25 04:39:11;;;;;;;;;28.00;20.25;;;29.69;97740.73;;;;119011;1189;25314;-64
2022/07/25 04:41:38;;;;;;;;;21.00;19.00;;;29.68;97741.28;;;;119128;1188;25603;-66
2022/07/25 04:44:07;;;;;;;;;32.00;23.75;;;29.66;97745.55;;;;119008;1189;26399;-65
2022/07/25 04:46:36;;;;;;;;;33.67;25.67;;;29.65;97742.12;;;;119034;1188;26343;-65
2022/07/25 04:49:03;;;;;;;;;34.00;23.00;;;29.66;97738.73;;;;118966;1189;25638;-65
2022/07/25 04:51:33;;;;;;;;;31.25;23.50;;;29.61;97736.53;;;;118987;1189;25245;-71
2022/07/25 04:54:01;;;;;;;;;32.75;27.75;;;29.69;97730.85;;;;118984;1189;25945;-72
2022/07/25 04:56:32;;;;;;;;;33.25;26.25;;;30.17;97728.62;;;;119216;1189;25474;-70
2022/07/25 04:59:00;;;;;;;;;30.25;25.75;;;30.60;97728.52;;;;118981;1188;25572;-70
2022/07/25 05:01:34;;;;;;;;;34.00;26.33;;;30.52;97723.73;;;;118982;1189;25519;-70
2022/07/25 05:04:02;;;;;;;;;34.25;27.75;;;30.42;97727.30;;;;119009;1190;25092;-69
2022/07/25 05:06:30;;;;;;;;;35.00;27.50;;;30.38;97728.63;;;;119056;1188;24920;-70
2022/07/25 05:08:58;;;;;;;;;26.25;24.50;;;30.33;97728.38;;;;119135;1188;24871;-70
2022/07/25 05:11:26;;;;;;;;;30.25;25.75;;;30.28;97723.53;;;;119181;1188;24832;-70
2022/07/25 05:13:55;;;;;;;;;26.25;19.75;;;30.37;97725.80;;;;119347;1188;25571;-70
2022/07/25 05:16:22;;;;;;;;;30.50;25.75;;;30.68;97730.33;;;;119411;1190;25498;-69
2022/07/25 05:18:53;;;;;;;;;29.00;22.25;;;31.18;97734.37;;;;119628;1189;25005;-69
2022/07/25 05:21:21;;;;;;;;;35.75;26.00;;;31.55;97728.90;;;;119405;1189;25574;-70
2022/07/25 05:23:49;;;;;;;;;35.25;28.50;;;31.82;97734.45;;;;119596;1186;25173;-69
2022/07/25 05:26:16;;;;;;;;;25.00;24.75;;;31.98;97737.61;;;;119374;1189;24927;-69
2022/07/25 05:28:44;;;;;;;;;37.25;25.25;;;32.12;97739.73;;;;119017;1189;25360;-71
2022/07/25 05:31:12;;;;;;;;;20.50;20.50;;;31.67;97735.41;;;;118983;1189;25383;-70
2022/07/25 05:33:41;;;;;;;;;31.50;24.25;;;31.30;97741.14;;;;118989;1189;25603;-69
2022/07/25 05:36:09;;;;;;;;;31.00;21.00;;;31.07;97740.48;;;;118995;1189;25256;-70
2022/07/25 05:38:37;;;;;;;;;34.50;20.25;;;30.91;97733.45;;;;119006;1189;25777;-70
2022/07/25 05:41:05;;;;;;;;;33.25;25.00;;;30.79;97729.94;;;;119010;1190;26066;-70
2022/07/25 05:43:32;;;;;;;;;26.50;23.75;;;30.71;97726.88;;;;119004;1189;26073;-71
2022/07/25 05:46:01;;;;;;;;;26.50;24.00;;;30.64;97723.48;;;;118964;1189;25576;-72
2022/07/25 05:48:30;;;;;;;;;32.00;24.00;;;30.61;97724.13;;;;118995;1189;25103;-71
2022/07/25 05:50:58;;;;;;;;;21.00;16.75;;;30.58;97720.77;;;;118991;1190;26031;-69
2022/07/25 05:53:26;;;;;;;;;28.33;23.67;;;30.57;97718.02;;;;118999;1190;24979;-69
2022/07/25 05:55:53;;;;;;;;;26.75;20.25;;;30.55;97717.98;;;;119013;1189;25390;-70
2022/07/25 05:58:21;;;;;;;;;25.00;22.25;;;30.51;97720.59;;;;119023;1189;25496;-69
2022/07/25 06:00:57;;;;;;;;;29.50;24.25;;;30.51;97719.89;;;;118977;1190;25503;-69
2022/07/25 06:03:24;;;;;;;;;27.00;22.00;;;30.51;97716.63;;;;118997;1190;25119;-69
2022/07/25 06:05:54;;;;;;;;;30.00;26.00;;;30.51;97713.80;;;;119004;1190;25881;-69
2022/07/25 06:08:21;;;;;;;;;29.00;24.33;;;30.49;97712.62;;;;118994;1188;25294;-70
2022/07/25 06:10:49;;;;;;;;;28.25;24.75;;;30.50;97716.55;;;;119004;1190;25968;-70
2022/07/25 06:13:17;;;;;;;;;27.50;24.25;;;30.48;97719.50;;;;119001;1190;25469;-70
2022/07/25 06:15:47;;;;;;;;;30.25;23.75;;;30.49;97723.16;;;;118944;1190;26076;-70
2022/07/25 06:18:15;;;;;;;;;28.00;25.00;;;30.49;97721.25;;;;118987;1189;26050;-69
2022/07/25 06:20:43;;;;;;;;;28.75;22.50;;;30.48;97718.70;;;;118978;1190;25181;-69
2022/07/25 06:23:10;;;;;;;;;21.25;16.50;;;30.47;97718.52;;;;118997;1190;26540;-74
2022/07/25 06:25:38;;;;;;;;;27.75;22.50;;;30.47;97716.71;;;;118976;1189;24725;-69
2022/07/25 06:28:06;;;;;;;;;22.50;22.00;;;30.46;97712.93;;;;118974;1188;25014;-69
2022/07/25 06:30:37;;;;;;;;;31.25;22.00;;;30.47;97712.88;;;;118978;1189;26051;-70
2022/07/25 06:33:05;;;;;;;;;25.75;23.50;;;30.46;97711.03;;;;118993;1190;24840;-70
2022/07/25 06:35:32;;;;;;;;;15.25;15.25;;;30.46;97708.23;;;;118994;1189;25184;-70
2022/07/25 06:38:01;;;;;;;;;23.00;21.50;;;30.45;97704.29;;;;119006;1188;24932;-70
2022/07/25 06:40:29;;;;;;;;;22.75;19.75;;;30.47;97706.35;;;;118978;1189;25220;-71
2022/07/25 06:42:56;;;;;;;;;27.75;24.00;;;30.47;97705.05;;;;119012;1189;25181;-70
2022/07/25 06:45:24;;;;;;;;;25.25;23.00;;;30.47;97701.82;;;;118992;1190;25538;-70
2022/07/25 06:47:52;;;;;;;;;20.75;19.00;;;30.46;97700.55;;;;119015;1189;25750;-70
2022/07/25 06:50:20;;;;;;;;;30.75;23.25;;;30.47;97699.27;;;;119011;1190;25066;-70
2022/07/25 06:52:48;;;;;;;;;29.50;23.25;;;30.47;97699.94;;;;118999;1189;24965;-70
2022/07/25 06:55:16;;;;;;;;;24.50;19.50;;;30.47;97697.30;;;;118984;1189;25288;-70
2022/07/25 06:57:44;;;;;;;;;23.00;19.75;;;30.49;97693.84;;;;118997;1190;24869;-71
2022/07/25 07:00:13;;;;;;;;;27.25;22.75;;;30.48;97689.63;;;;118988;1190;25182;-70
2022/07/25 07:02:51;;;;;;;;;22.75;19.50;;;30.48;97686.41;;;;119006;1189;25327;-70
2022/07/25 07:05:20;;;;;;;;;24.00;21.25;;;30.50;97684.73;;;;119128;1188;25545;-70
2022/07/25 07:07:49;;;;;;;;;26.75;22.50;;;30.52;97686.73;;;;119135;1189;25485;-71
2022/07/25 07:10:17;;;;;;;;;26.00;21.00;;;30.52;97684.53;;;;119004;1189;25648;-71
2022/07/25 07:12:45;;;;;;;;;25.50;23.25;;;30.51;97677.30;;;;119136;1188;26495;-71
2022/07/25 07:15:13;;;;;;;;;23.00;19.50;;;30.51;97673.04;;;;119112;1187;25482;-71
2022/07/25 07:17:41;;;;;;;;;26.00;20.50;;;30.51;97672.09;;;;119004;1189;25439;-70
2022/07/25 07:20:10;;;;;;;;;23.00;19.67;;;30.51;97672.66;;;;119009;1189;25083;-70
2022/07/25 07:22:45;;;;;;;;;24.00;20.50;;;30.51;97669.29;;;;119127;1187;25044;-70
2022/07/25 07:25:15;;;;;;;;;25.75;21.75;;;30.53;97671.99;;;;119103;1188;25705;-70
2022/07/25 07:27:44;;;;;;;;;22.50;17.75;;;30.53;97672.02;;;;118973;1190;25991;-71
2022/07/25 07:30:15;;;;;;;;;23.50;19.25;;;30.53;97672.10;;;;118998;1189;25453;-71
2022/07/25 07:32:51;;;;;;;;;25.25;19.50;;;30.57;97671.69;;;;118911;1189;25787;-71
2022/07/25 07:35:19;;;;;;;;;18.50;16.50;;;30.59;97670.83;;;;118987;1188;26294;-70
2022/07/25 07:37:47;;;;;;;;;22.25;19.50;;;30.60;97669.10;;;;119017;1189;24947;-71
2022/07/25 07:40:15;;;;;;;;;22.50;19.25;;;30.60;97667.13;;;;118988;1190;25716;-70
2022/07/25 07:42:47;;;;;;;;;17.75;16.00;;;30.61;97666.71;;;;118987;1190;25481;-70
2022/07/25 07:45:20;;;;;;;;;23.00;20.25;;;30.61;97667.07;;;;118989;1190;26138;-70
2022/07/25 07:47:49;;;;;;;;;18.00;17.50;;;30.64;97664.05;;;;118985;1189;25281;-71
2022/07/25 07:50:20;;;;;;;;;27.50;21.50;;;30.65;97664.52;;;;118966;1189;25188;-70
2022/07/25 07:52:49;;;;;;;;;23.25;20.75;;;30.64;97667.05;;;;118965;1190;25871;-70
2022/07/25 07:58:04;;;;;;;;;24.00;18.50;;;30.66;97666.11;;;;118994;1190;24793;-71
2022/07/25 08:00:33;;;;;;;;;23.00;20.25;;;30.64;97665.41;;;;118981;1189;25906;-70
2022/07/25 08:03:02;;;;;;;;;21.75;17.50;;;30.64;97666.03;;;;118991;1190;25368;-70
2022/07/25 08:05:32;;;;;;;;;22.00;18.00;;;30.65;97664.42;;;;118985;1190;25392;-70
2022/07/25 08:08:00;;;;;;;;;18.50;17.50;;;30.63;97662.95;;;;118975;1190;24795;-70
2022/07/25 08:10:31;;;;;;;;;19.75;17.25;;;30.62;97656.23;;;;118996;1189;25369;-70
2022/07/25 08:12:59;;;;;;;;;25.25;24.25;;;30.61;97652.11;;;;119014;1188;24812;-70
2022/07/25 08:15:27;;;;;;;;;21.75;18.00;;;30.60;97651.64;;;;119011;1190;25056;-70
2022/07/25 08:17:54;;;;;;;;;28.25;20.50;;;30.59;97651.16;;;;118999;1190;25605;-70
2022/07/25 08:20:23;;;;;;;;;20.50;19.00;;;30.58;97651.89;;;;118982;1190;25397;-70
2022/07/25 08:23:09;;;;;;;;;24.33;21.33;;;30.62;97648.48;;;;118903;1191;25728;-70
2022/07/25 08:25:38;;;;;;;;;20.75;17.75;;;30.65;97647.56;;;;118913;1191;26378;-70
2022/07/25 08:28:06;;;;;;;;;18.50;17.00;;;30.64;97645.65;;;;118921;1191;25299;-70
2022/07/25 08:30:35;;;;;;;;;23.75;18.50;;;30.63;97643.38;;;;118927;1191;25141;-70
2022/07/25 08:33:05;;;;;;;;;19.75;14.75;;;30.62;97640.59;;;;118901;1191;26004;-70
2022/07/25 08:35:33;;;;;;;;;22.75;19.50;;;30.64;97644.17;;;;118913;1191;25768;-70
2022/07/25 08:38:03;;;;;;;;;22.50;18.50;;;30.64;97641.29;;;;118933;1191;25516;-70
2022/07/25 08:40:32;;;;;;;;;22.75;19.75;;;30.63;97640.67;;;;118931;1191;25286;-70
2022/07/25 08:43:01;;;;;;;;;21.00;19.00;;;30.62;97640.41;;;;118940;1189;25632;-71
2022/07/25 08:45:29;;;;;;;;;21.00;18.50;;;30.62;97642.23;;;;118935;1191;26284;-70
2022/07/25 08:47:57;;;;;;;;;20.00;18.75;;;30.63;97636.80;;;;118919;1191;25246;-70
2022/07/25 08:50:28;;;;;;;;;22.25;20.00;;;30.61;97635.43;;;;118924;1191;25698;-70
2022/07/25 08:52:56;;;;;;;;;24.00;18.67;;;30.61;97637.15;;;;118916;1191;25584;-70
2022/07/25 08:55:45;;;;;;;;;25.25;19.50;;;30.68;97635.20;;;;118912;1190;25760;-70
2022/07/25 08:58:15;;;;;;;;;20.50;20.50;;;30.68;97634.48;;;;118939;1190;26102;-70
2022/07/25 09:00:43;;;;;;;;;21.00;19.67;;;30.67;97630.17;;;;118919;1191;25324;-70
2022/07/25 09:03:12;;;;;;;;;23.00;20.25;;;30.68;97633.00;;;;118929;1191;25129;-70
2022/07/25 09:05:40;;;;;;;;;24.00;20.00;;;30.66;97633.35;;;;118935;1190;25558;-70
2022/07/25 09:08:10;;;;;;;;;22.50;20.25;;;30.66;97637.16;;;;118954;1189;25983;-70
2022/07/25 09:10:41;;;;;;;;;21.00;17.75;;;30.64;97637.20;;;;118973;1189;25176;-71
2022/07/25 09:13:13;;;;;;;;;23.50;19.50;;;30.65;97640.77;;;;118978;1189;25715;-70
2022/07/25 09:15:49;;;;;;;;;20.00;16.75;;;30.67;97632.94;;;;118952;1190;25254;-70
2022/07/25 09:18:22;;;;;;;;;12.50;12.00;;;30.66;97633.66;;;;118977;1189;25487;-69
2022/07/25 09:20:54;;;;;;;;;19.75;17.50;;;30.66;97632.84;;;;118933;1190;25638;-70
2022/07/25 09:23:33;;;;;;;;;21.25;19.00;;;30.66;97628.20;;;;118999;1189;25768;-70
2022/07/25 09:26:01;;;;;;;;;14.50;12.00;;;30.65;97623.83;;;;118990;1190;25952;-71
2022/07/25 09:28:29;;;;;;;;;19.00;17.50;;;30.63;97626.57;;;;119024;1189;25079;-70
2022/07/25 09:30:59;;;;;;;;;22.67;20.67;;;30.61;97626.50;;;;118977;1189;25397;-71
2022/07/25 09:33:28;;;;;;;;;23.25;18.75;;;30.61;97623.95;;;;118960;1190;25401;-69
2022/07/25 09:35:56;;;;;;;;;20.25;17.25;;;30.63;97621.59;;;;119005;1189;24928;-68
2022/07/25 09:38:24;;;;;;;;;21.50;21.50;;;30.62;97622.70;;;;119014;1190;25393;-69
2022/07/25 09:41:00;;;;;;;;;19.25;16.75;;;30.62;97621.73;;;;118989;1190;26025;-69
2022/07/25 09:43:36;;;;;;;;;17.00;17.00;;;30.65;97620.70;;;;118972;1190;24919;-69
2022/07/25 09:46:04;;;;;;;;;18.50;17.25;;;30.65;97620.85;;;;118996;1189;25704;-70
2022/07/25 09:48:34;;;;;;;;;16.00;13.00;;;30.67;97619.03;;;;119247;1188;25512;-73
2022/07/25 09:51:02;;;;;;;;;20.25;18.00;;;30.85;97622.50;;;;118870;1189;25813;-71
2022/07/25 09:53:31;;;;;;;;;17.00;15.75;;;30.90;97621.56;;;;118936;1190;25222;-68
2022/07/25 09:55:58;;;;;;;;;15.00;15.00;;;30.92;97618.98;;;;119116;1187;25771;-67
2022/07/25 09:58:28;;;;;;;;;18.75;18.75;;;30.91;97616.58;;;;119101;1188;25164;-68
2022/07/25 10:01:04;;;;;;;;;19.25;16.25;;;30.89;97614.71;;;;118984;1189;25146;-69
2022/07/25 10:03:44;;;;;;;;;18.25;15.75;;;30.91;97617.03;;;;118843;1190;25548;-69
2022/07/25 10:06:29;;;;;;;;;19.50;16.50;;;30.96;97616.16;;;;119158;1188;25596;-75
2022/07/25 10:08:58;;;;;;;;;21.25;18.00;;;30.99;97614.83;;;;118946;1190;25655;-71
2022/07/25 10:11:26;;;;;;;;;20.33;17.33;;;31.15;97614.46;;;;119235;1186;25795;-71
2022/07/25 10:13:55;;;;;;;;;19.75;17.50;;;31.26;97609.31;;;;119249;1188;25787;-71
2022/07/25 10:16:24;;;;;;;;;20.25;18.50;;;31.38;97603.90;;;;119042;1189;25911;-72
2022/07/25 10:18:55;;;;;;;;;14.75;13.25;;;31.45;97598.10;;;;119278;1186;26068;-71
2022/07/25 10:21:24;;;;;;;;;18.00;13.00;;;31.51;97596.38;;;;119192;1189;24989;-71
2022/07/25 10:23:58;;;;;;;;;14.00;13.25;;;31.53;97591.86;;;;119254;1187;25027;-67
2022/07/25 10:26:26;;;;;;;;;19.50;15.75;;;31.60;97591.52;;;;119268;1187;26165;-65
2022/07/25 10:28:57;;;;;;;;;18.50;16.25;;;31.66;97588.36;;;;119228;1187;25564;-66
2022/07/25 10:31:31;;;;;;;;;15.00;15.00;;;31.68;97585.01;;;;119064;1188;24864;-67
2022/07/25 10:34:02;;;;;;;;;19.25;16.25;;;31.62;97583.25;;;;119214;1187;24876;-65
2022/07/25 10:36:49;;;;;;;;;20.00;14.50;;;31.60;97584.70;;;;119172;1187;25300;-74
2022/07/25 10:39:18;;;;;;;;;20.00;17.50;;;31.60;97584.45;;;;119036;1189;25429;-67
2022/07/25 10:41:58;;;;;;;;;18.00;14.00;;;31.64;97578.88;;;;119272;1187;25145;-67
2022/07/25 10:44:29;;;;;;;;;20.25;19.00;;;31.65;97572.92;;;;119002;1189;25858;-67
2022/07/25 10:47:09;;;;;;;;;16.50;13.25;;;31.61;97569.63;;;;119255;1188;25350;-67
2022/07/25 10:49:41;;;;;;;;;16.75;16.00;;;31.67;97563.89;;;;119250;1188;24975;-67
2022/07/25 10:52:29;;;;;;;;;16.00;13.00;;;31.75;97561.23;;;;119112;1188;25372;-67
2022/07/25 10:54:59;;;;;;;;;19.75;17.50;;;31.74;97554.80;;;;119255;1187;25225;-67
2022/07/25 10:57:28;;;;;;;;;19.25;18.25;;;31.73;97548.55;;;;118996;1190;25369;-66
2022/07/25 11:00:06;;;;;;;;;19.75;14.75;;;31.74;97545.33;;;;118993;1190;25273;-66
2022/07/25 11:02:34;;;;;;;;;16.75;13.25;;;31.70;97541.77;;;;119175;1186;25627;-68
2022/07/25 11:05:03;;;;;;;;;19.50;15.75;;;31.78;97538.55;;;;119302;1187;25490;-67
2022/07/25 11:07:37;;;;;;;;;16.00;14.75;;;31.83;97535.54;;;;119111;1187;25284;-73
2022/07/25 11:10:05;;;;;;;;;17.25;15.25;;;31.86;97532.17;;;;119251;1188;25674;-73
2022/07/25 11:12:33;;;;;;;;;15.50;14.50;;;31.90;97531.05;;;;118984;1190;24830;-75
2022/07/25 11:15:04;;;;;;;;;23.25;17.75;;;31.94;97531.48;;;;119009;1190;25001;-77
2022/07/25 11:17:33;;;;;;;;;21.75;16.75;;;31.96;97525.82;;;;119178;1188;26004;-67
2022/07/25 11:20:04;;;;;;;;;17.75;15.00;;;31.98;97518.47;;;;119285;1187;25586;-66
2022/07/25 11:22:33;;;;;;;;;21.75;17.50;;;31.95;97514.59;;;;119308;1188;24780;-66
2022/07/25 11:25:08;;;;;;;;;15.00;14.50;;;31.96;97510.41;;;;119261;1187;25910;-68
2022/07/25 11:27:36;;;;;;;;;15.50;15.50;;;31.94;97508.56;;;;119288;1188;24808;-68
2022/07/25 11:30:23;;;;;;;;;17.00;14.75;;;31.91;97503.88;;;;119023;1188;26005;-67
2022/07/25 11:32:54;;;;;;;;;21.25;17.00;;;31.93;97501.23;;;;119040;1190;25127;-67
2022/07/25 11:35:30;;;;;;;;;14.00;13.25;;;31.90;97504.77;;;;119056;1189;25595;-69
2022/07/25 11:38:01;;;;;;;;;17.00;13.25;;;31.90;97502.15;;;;119126;1188;25147;-76
2022/07/25 11:40:31;;;;;;;;;14.75;14.75;;;31.93;97502.71;;;;118959;1190;25802;-68
2022/07/25 11:42:59;;;;;;;;;15.75;13.75;;;31.92;97500.06;;;;119238;1188;24897;-67
2022/07/25 11:45:30;;;;;;;;;16.25;14.25;;;31.92;97495.33;;;;119179;1188;26236;-67
2022/07/25 11:48:06;;;;;;;;;16.25;15.25;;;31.95;97492.69;;;;119202;1188;24762;-69
2022/07/25 11:50:37;;;;;;;;;20.00;16.00;;;31.96;97493.63;;;;119071;1188;25790;-68
2022/07/25 11:53:14;;;;;;;;;15.00;13.25;;;31.87;97493.05;;;;118997;1189;24887;-68
2022/07/25 11:55:43;;;;;;;;;19.75;15.00;;;31.71;97491.99;;;;118965;1190;25116;-71
2022/07/25 11:58:12;;;;;;;;;17.75;14.75;;;31.59;97487.04;;;;119056;1189;25676;-71
2022/07/25 12:00:45;;;;;;;;;30.25;18.75;;;31.67;97484.94;;;;119110;1189;25742;-70
2022/07/25 12:03:16;;;;;;;;;23.25;17.25;;;31.85;97485.23;;;;118987;1189;25704;-71
2022/07/25 12:05:48;;;;;;;;;24.33;19.33;;;31.77;97480.13;;;;119013;1189;26033;-70
2022/07/25 12:08:18;;;;;;;;;12.50;10.75;;;31.67;97470.92;;;;119014;1189;24850;-72